MDT,Max TemperatureF,Mean TemperatureF,Min TemperatureF,Max Dew PointF,MeanDew PointF,Min DewpointF,Max Humidity, Mean Humidity, Min Humidity, Max Sea Level PressureIn, Mean Sea Level PressureIn, Min Sea Level PressureIn, Max VisibilityMiles, Mean VisibilityMiles, Min VisibilityMiles, Max Wind SpeedMPH, Mean Wind SpeedMPH, Max Gust SpeedMPH,PrecipitationIn, CloudCover, Events, WindDirDegrees
2013-6-1,74,59,43,39,36,31,62,45,27,30.13,30.02,29.86,10,10,8,33,13,41,0.00,0,,4
2013-6-2,91,66,40,42,36,33,65,40,14,30.10,29.89,29.64,10,10,9,33,16,40,0.00,0,,155
2013-6-3,102,81,60,44,32,17,48,27,5,29.65,29.54,29.44,10,9,4,41,13,52,0.00,1,,245
2013-6-4,85,73,61,59,53,32,73,49,24,29.99,29.77,29.57,10,9,1,25,12,31,T,1,,35
2013-6-5,64,57,49,58,51,43,100,84,67,30.16,30.05,29.85,10,8,2,21,11,26,0.01,8,Rain,48
2013-6-6,83,63,43,52,43,36,89,54,18,30.07,29.97,29.86,10,10,10,17,6,22,0.00,1,,176
2013-6-7,91,71,51,52,47,39,83,51,18,29.90,29.81,29.70,10,10,9,29,10,37,0.00,1,,127
2013-6-8,86,71,56,52,45,38,72,48,23,29.86,29.69,29.57,10,10,10,29,12,39,0.00,0,Thunderstorm,25
2013-6-9,94,73,52,48,38,28,68,40,11,29.90,29.81,29.72,10,10,10,20,6,25,0.00,0,,196
2013-6-10,108,82,55,43,30,16,34,19,4,29.75,29.66,29.53,10,9,6,36,9,47,0.00,0,,249
2013-6-11,111,91,70,39,22,3,29,16,3,29.64,29.57,29.46,10,10,9,35,17,43,0.00,0,,238
2013-6-12,100,81,62,44,33,17,40,23,6,29.89,29.82,29.68,10,10,10,20,9,29,0.00,0,,137
2013-6-13,105,85,65,58,47,38,73,43,13,29.98,29.82,29.71,10,9,2,31,17,51,0.00,0,,131
2013-6-14,101,83,65,53,46,42,57,36,14,29.94,29.75,29.63,10,8,0,48,15,60,T,2,Thunderstorm,217
2013-6-15,96,77,58,59,50,38,75,45,14,29.94,29.79,29.68,10,9,2,37,8,45,T,0,Rain,67
2013-6-16,96,78,60,59,54,46,90,55,19,30.12,29.92,29.73,10,9,2,40,13,48,0.25,2,Rain-Thunderstorm,188
2013-6-17,90,72,54,62,55,49,100,63,26,30.20,30.01,29.86,10,7,0,36,10,44,1.84,3,Fog-Rain-Thunderstorm,107
2013-6-18,89,73,57,60,55,52,93,62,31,30.05,29.91,29.76,10,10,7,38,12,56,0.08,2,Rain-Thunderstorm,114
2013-6-19,89,76,63,63,60,57,87,62,36,29.96,29.76,29.59,10,10,6,32,19,43,0.01,4,Rain-Thunderstorm,172
2013-6-20,105,87,69,57,40,16,61,33,4,29.67,29.59,29.49,10,9,8,47,13,60,0.00,1,,213
2013-6-21,105,88,70,56,39,-5,44,23,2,29.82,29.61,29.49,10,9,2,39,20,48,0.00,1,,213
2013-6-22,94,81,68,57,50,39,54,35,15,29.70,29.60,29.48,10,9,8,36,9,44,0.00,1,,335
2013-6-23,94,78,61,61,50,34,67,45,23,29.80,29.68,29.56,10,10,8,25,12,38,0.00,0,,46
2013-6-24,97,81,64,60,48,35,67,40,12,29.80,29.63,29.49,10,9,7,29,12,36,0.00,0,,295
2013-6-25,101,81,60,42,26,16,37,21,5,29.71,29.64,29.56,10,10,9,13,6,21,0.00,0,,191
2013-6-26,104,83,61,57,48,35,65,38,10,29.85,29.79,29.72,10,10,9,21,7,24,0.00,0,,136
2013-6-27,107,87,67,61,54,42,70,41,12,29.99,29.87,29.80,10,9,6,25,10,30,0.00,0,,50
2013-6-28,101,84,67,66,51,35,87,49,11,30.09,29.96,29.85,10,9,6,23,9,30,T,0,Thunderstorm,138
2013-6-29,94,83,71,55,51,47,49,35,21,30.21,29.96,29.84,10,10,10,25,8,31,T,1,Rain-Thunderstorm,53
2013-6-30,81,71,60,59,52,43,84,56,28,30.07,30.03,29.97,10,10,5,18,7,23,0.05,1,Rain,96